sensor_id;sensor_type;location;lat;lon;timestamp;P1;durP1;ratioP1;P2;durP2;ratioP2
68763;SDS011;55754;52.038;5.566;2023-04-03T00:00:52;6.33;;;1.70;;
68763;SDS011;55754;52.038;5.566;2023-04-03T00:03:18;4.55;;;1.77;;
68763;SDS011;55754;52.038;5.566;2023-04-03T00:05:45;5.32;;;1.80;;
68763;SDS011;55754;52.038;5.566;2023-04-03T00:08:11;5.43;;;1.70;;
68763;SDS011;55754;52.038;5.566;2023-04-03T00:10:37;5.07;;;1.60;;
68763;SDS011;55754;52.038;5.566;2023-04-03T00:13:03;5.57;;;1.80;;
68763;SDS011;55754;52.038;5.566;2023-04-03T00:15:30;9.23;;;1.95;;
68763;SDS011;55754;52.038;5.566;2023-04-03T00:17:56;6.20;;;1.70;;
68763;SDS011;55754;52.038;5.566;2023-04-03T00:20:21;5.33;;;1.63;;
68763;SDS011;55754;52.038;5.566;2023-04-03T00:22:48;6.13;;;1.55;;
68763;SDS011;55754;52.038;5.566;2023-04-03T00:25:14;6.72;;;1.70;;
68763;SDS011;55754;52.038;5.566;2023-04-03T00:27:40;4.87;;;1.43;;
68763;SDS011;55754;52.038;5.566;2023-04-03T00:30:07;5.57;;;1.45;;
68763;SDS011;55754;52.038;5.566;2023-04-03T00:32:36;4.22;;;1.48;;
68763;SDS011;55754;52.038;5.566;2023-04-03T00:35:02;4.93;;;1.67;;
68763;SDS011;55754;52.038;5.566;2023-04-03T00:37:28;4.57;;;1.75;;
68763;SDS011;55754;52.038;5.566;2023-04-03T00:39:54;5.13;;;1.60;;
68763;SDS011;55754;52.038;5.566;2023-04-03T00:42:19;4.80;;;1.73;;
68763;SDS011;55754;52.038;5.566;2023-04-03T00:47:11;5.07;;;1.63;;
68763;SDS011;55754;52.038;5.566;2023-04-03T00:49:38;5.95;;;1.67;;
68763;SDS011;55754;52.038;5.566;2023-04-03T00:52:05;5.32;;;1.70;;
68763;SDS011;55754;52.038;5.566;2023-04-03T00:54:38;4.45;;;1.75;;
68763;SDS011;55754;52.038;5.566;2023-04-03T00:57:06;5.13;;;1.63;;
68763;SDS011;55754;52.038;5.566;2023-04-03T00:59:34;4.88;;;1.67;;
68763;SDS011;55754;52.038;5.566;2023-04-03T01:02:05;6.45;;;1.70;;
68763;SDS011;55754;52.038;5.566;2023-04-03T01:04:31;5.10;;;1.77;;
68763;SDS011;55754;52.038;5.566;2023-04-03T01:07:00;5.03;;;1.55;;
68763;SDS011;55754;52.038;5.566;2023-04-03T01:09:32;5.13;;;2.00;;
68763;SDS011;55754;52.038;5.566;2023-04-03T01:12:20;4.65;;;1.65;;
68763;SDS011;55754;52.038;5.566;2023-04-03T01:14:54;5.18;;;1.65;;
68763;SDS011;55754;52.038;5.566;2023-04-03T01:20:14;5.72;;;1.65;;
68763;SDS011;55754;52.038;5.566;2023-04-03T01:25:38;5.07;;;1.60;;
68763;SDS011;55754;52.038;5.566;2023-04-03T01:28:04;5.00;;;1.60;;
68763;SDS011;55754;52.038;5.566;2023-04-03T01:30:33;5.70;;;1.70;;
68763;SDS011;55754;52.038;5.566;2023-04-03T01:33:01;7.93;;;1.77;;
68763;SDS011;55754;52.038;5.566;2023-04-03T01:35:26;7.90;;;1.50;;
68763;SDS011;55754;52.038;5.566;2023-04-03T01:37:52;6.43;;;1.53;;
68763;SDS011;55754;52.038;5.566;2023-04-03T01:40:18;8.17;;;1.50;;
68763;SDS011;55754;52.038;5.566;2023-04-03T01:42:43;6.45;;;1.67;;
68763;SDS011;55754;52.038;5.566;2023-04-03T01:45:09;4.43;;;1.47;;
68763;SDS011;55754;52.038;5.566;2023-04-03T01:47:37;5.55;;;1.70;;
68763;SDS011;55754;52.038;5.566;2023-04-03T01:50:03;4.77;;;1.60;;
68763;SDS011;55754;52.038;5.566;2023-04-03T01:52:29;4.95;;;1.60;;
68763;SDS011;55754;52.038;5.566;2023-04-03T01:54:55;5.03;;;1.60;;
68763;SDS011;55754;52.038;5.566;2023-04-03T01:57:20;4.23;;;1.50;;
68763;SDS011;55754;52.038;5.566;2023-04-03T01:59:46;4.90;;;1.70;;
68763;SDS011;55754;52.038;5.566;2023-04-03T02:02:11;6.20;;;1.92;;
68763;SDS011;55754;52.038;5.566;2023-04-03T02:04:39;5.03;;;1.50;;
68763;SDS011;55754;52.038;5.566;2023-04-03T02:07:05;4.80;;;1.55;;
68763;SDS011;55754;52.038;5.566;2023-04-03T02:09:31;6.13;;;1.58;;
68763;SDS011;55754;52.038;5.566;2023-04-03T02:11:56;6.10;;;1.70;;
68763;SDS011;55754;52.038;5.566;2023-04-03T02:14:22;4.93;;;1.90;;
68763;SDS011;55754;52.038;5.566;2023-04-03T02:16:48;7.43;;;1.90;;
68763;SDS011;55754;52.038;5.566;2023-04-03T02:19:14;6.20;;;1.55;;
68763;SDS011;55754;52.038;5.566;2023-04-03T02:21:40;4.97;;;1.70;;
68763;SDS011;55754;52.038;5.566;2023-04-03T02:24:08;6.63;;;1.70;;
68763;SDS011;55754;52.038;5.566;2023-04-03T02:26:34;5.77;;;1.67;;
68763;SDS011;55754;52.038;5.566;2023-04-03T02:28:59;5.38;;;1.73;;
68763;SDS011;55754;52.038;5.566;2023-04-03T02:31:25;8.03;;;1.90;;
68763;SDS011;55754;52.038;5.566;2023-04-03T02:33:51;5.20;;;1.80;;
68763;SDS011;55754;52.038;5.566;2023-04-03T02:36:16;6.18;;;1.75;;
68763;SDS011;55754;52.038;5.566;2023-04-03T02:38:51;6.18;;;2.10;;
68763;SDS011;55754;52.038;5.566;2023-04-03T02:41:17;6.37;;;1.60;;
68763;SDS011;55754;52.038;5.566;2023-04-03T02:43:42;5.43;;;1.70;;
68763;SDS011;55754;52.038;5.566;2023-04-03T02:46:08;7.10;;;1.98;;
68763;SDS011;55754;52.038;5.566;2023-04-03T02:48:34;4.35;;;1.52;;
68763;SDS011;55754;52.038;5.566;2023-04-03T02:51:00;5.88;;;1.80;;
68763;SDS011;55754;52.038;5.566;2023-04-03T02:53:26;5.80;;;1.87;;
68763;SDS011;55754;52.038;5.566;2023-04-03T02:55:51;5.32;;;1.83;;
68763;SDS011;55754;52.038;5.566;2023-04-03T02:58:17;5.87;;;1.77;;
68763;SDS011;55754;52.038;5.566;2023-04-03T03:00:42;5.63;;;1.90;;
68763;SDS011;55754;52.038;5.566;2023-04-03T03:03:08;5.05;;;1.98;;
68763;SDS011;55754;52.038;5.566;2023-04-03T03:05:33;6.70;;;2.00;;
68763;SDS011;55754;52.038;5.566;2023-04-03T03:07:59;7.95;;;2.05;;
68763;SDS011;55754;52.038;5.566;2023-04-03T03:10:25;7.23;;;1.90;;
68763;SDS011;55754;52.038;5.566;2023-04-03T03:12:50;6.03;;;1.70;;
68763;SDS011;55754;52.038;5.566;2023-04-03T03:15:16;7.25;;;2.30;;
68763;SDS011;55754;52.038;5.566;2023-04-03T03:17:42;5.80;;;1.87;;
68763;SDS011;55754;52.038;5.566;2023-04-03T03:20:08;8.07;;;2.17;;
68763;SDS011;55754;52.038;5.566;2023-04-03T03:22:34;8.38;;;1.80;;
68763;SDS011;55754;52.038;5.566;2023-04-03T03:25:00;5.30;;;1.85;;
68763;SDS011;55754;52.038;5.566;2023-04-03T03:27:27;5.20;;;1.92;;
68763;SDS011;55754;52.038;5.566;2023-04-03T03:29:52;6.85;;;2.05;;
68763;SDS011;55754;52.038;5.566;2023-04-03T03:32:18;6.63;;;2.00;;
68763;SDS011;55754;52.038;5.566;2023-04-03T03:34:44;5.53;;;1.80;;
68763;SDS011;55754;52.038;5.566;2023-04-03T03:37:10;5.43;;;1.75;;
68763;SDS011;55754;52.038;5.566;2023-04-03T03:39:35;6.47;;;1.77;;
68763;SDS011;55754;52.038;5.566;2023-04-03T03:42:01;8.17;;;2.13;;
68763;SDS011;55754;52.038;5.566;2023-04-03T03:44:26;8.18;;;2.00;;
68763;SDS011;55754;52.038;5.566;2023-04-03T03:46:53;5.25;;;1.95;;
68763;SDS011;55754;52.038;5.566;2023-04-03T03:49:19;8.15;;;2.35;;
68763;SDS011;55754;52.038;5.566;2023-04-03T03:51:45;8.03;;;2.03;;
68763;SDS011;55754;52.038;5.566;2023-04-03T03:54:10;5.93;;;1.80;;
68763;SDS011;55754;52.038;5.566;2023-04-03T03:56:36;7.00;;;1.80;;
68763;SDS011;55754;52.038;5.566;2023-04-03T03:59:02;7.37;;;2.00;;
68763;SDS011;55754;52.038;5.566;2023-04-03T04:01:27;9.52;;;1.95;;
68763;SDS011;55754;52.038;5.566;2023-04-03T04:03:53;7.32;;;2.03;;
68763;SDS011;55754;52.038;5.566;2023-04-03T04:06:19;4.97;;;1.70;;
68763;SDS011;55754;52.038;5.566;2023-04-03T04:08:46;6.60;;;1.92;;
68763;SDS011;55754;52.038;5.566;2023-04-03T04:11:11;6.35;;;1.98;;
68763;SDS011;55754;52.038;5.566;2023-04-03T04:13:37;9.10;;;2.23;;
68763;SDS011;55754;52.038;5.566;2023-04-03T04:16:02;5.90;;;2.20;;
68763;SDS011;55754;52.038;5.566;2023-04-03T04:18:28;7.18;;;2.10;;
68763;SDS011;55754;52.038;5.566;2023-04-03T04:20:54;4.93;;;1.83;;
68763;SDS011;55754;52.038;5.566;2023-04-03T04:23:19;8.60;;;2.17;;
68763;SDS011;55754;52.038;5.566;2023-04-03T04:25:45;5.83;;;2.00;;
68763;SDS011;55754;52.038;5.566;2023-04-03T04:28:14;5.70;;;2.05;;
68763;SDS011;55754;52.038;5.566;2023-04-03T04:30:41;7.15;;;1.80;;
68763;SDS011;55754;52.038;5.566;2023-04-03T04:33:06;6.65;;;2.30;;
68763;SDS011;55754;52.038;5.566;2023-04-03T04:35:32;7.33;;;1.77;;
68763;SDS011;55754;52.038;5.566;2023-04-03T04:37:58;5.90;;;1.90;;
68763;SDS011;55754;52.038;5.566;2023-04-03T04:40:24;6.27;;;2.10;;
68763;SDS011;55754;52.038;5.566;2023-04-03T04:42:50;7.45;;;2.00;;
68763;SDS011;55754;52.038;5.566;2023-04-03T04:45:16;7.65;;;1.98;;
68763;SDS011;55754;52.038;5.566;2023-04-03T04:47:41;7.47;;;2.20;;
68763;SDS011;55754;52.038;5.566;2023-04-03T04:50:07;7.27;;;2.20;;
68763;SDS011;55754;52.038;5.566;2023-04-03T04:52:33;8.73;;;2.03;;
68763;SDS011;55754;52.038;5.566;2023-04-03T04:54:59;6.55;;;1.92;;
68763;SDS011;55754;52.038;5.566;2023-04-03T04:57:24;5.90;;;1.92;;
68763;SDS011;55754;52.038;5.566;2023-04-03T04:59:50;8.50;;;2.00;;
68763;SDS011;55754;52.038;5.566;2023-04-03T05:02:18;8.68;;;2.30;;
68763;SDS011;55754;52.038;5.566;2023-04-03T05:04:44;5.68;;;1.90;;
68763;SDS011;55754;52.038;5.566;2023-04-03T05:07:10;5.70;;;2.10;;
68763;SDS011;55754;52.038;5.566;2023-04-03T05:09:35;5.38;;;1.95;;
68763;SDS011;55754;52.038;5.566;2023-04-03T05:12:01;7.40;;;2.20;;
68763;SDS011;55754;52.038;5.566;2023-04-03T05:14:28;7.45;;;2.00;;
68763;SDS011;55754;52.038;5.566;2023-04-03T05:16:56;7.15;;;2.10;;
68763;SDS011;55754;52.038;5.566;2023-04-03T05:19:23;6.40;;;2.00;;
68763;SDS011;55754;52.038;5.566;2023-04-03T05:21:51;10.52;;;2.53;;
68763;SDS011;55754;52.038;5.566;2023-04-03T05:24:16;6.73;;;2.27;;
68763;SDS011;55754;52.038;5.566;2023-04-03T05:26:42;9.20;;;2.00;;
68763;SDS011;55754;52.038;5.566;2023-04-03T05:29:08;6.45;;;2.00;;
68763;SDS011;55754;52.038;5.566;2023-04-03T05:31:34;7.63;;;2.00;;
68763;SDS011;55754;52.038;5.566;2023-04-03T05:34:00;7.70;;;2.17;;
68763;SDS011;55754;52.038;5.566;2023-04-03T05:36:26;6.90;;;2.27;;
68763;SDS011;55754;52.038;5.566;2023-04-03T05:38:52;8.07;;;1.80;;
68763;SDS011;55754;52.038;5.566;2023-04-03T05:41:18;7.95;;;2.00;;
68763;SDS011;55754;52.038;5.566;2023-04-03T05:43:45;6.30;;;2.08;;
68763;SDS011;55754;52.038;5.566;2023-04-03T05:46:12;7.80;;;1.80;;
68763;SDS011;55754;52.038;5.566;2023-04-03T05:48:39;6.25;;;2.08;;
68763;SDS011;55754;52.038;5.566;2023-04-03T05:51:05;7.43;;;2.07;;
68763;SDS011;55754;52.038;5.566;2023-04-03T05:53:33;6.00;;;2.08;;
68763;SDS011;55754;52.038;5.566;2023-04-03T05:56:02;10.38;;;2.10;;
68763;SDS011;55754;52.038;5.566;2023-04-03T05:58:28;9.60;;;1.80;;
68763;SDS011;55754;52.038;5.566;2023-04-03T06:00:54;7.37;;;1.90;;
68763;SDS011;55754;52.038;5.566;2023-04-03T06:03:20;7.50;;;1.80;;
68763;SDS011;55754;52.038;5.566;2023-04-03T06:05:45;7.90;;;1.90;;
68763;SDS011;55754;52.038;5.566;2023-04-03T06:08:11;6.70;;;1.95;;
68763;SDS011;55754;52.038;5.566;2023-04-03T06:10:37;7.18;;;1.70;;
68763;SDS011;55754;52.038;5.566;2023-04-03T06:13:03;6.33;;;1.90;;
68763;SDS011;55754;52.038;5.566;2023-04-03T06:15:29;7.18;;;2.10;;
68763;SDS011;55754;52.038;5.566;2023-04-03T06:17:54;9.10;;;2.30;;
68763;SDS011;55754;52.038;5.566;2023-04-03T06:20:20;7.03;;;1.95;;
68763;SDS011;55754;52.038;5.566;2023-04-03T06:22:47;6.35;;;2.22;;
68763;SDS011;55754;52.038;5.566;2023-04-03T06:25:12;5.70;;;1.70;;
68763;SDS011;55754;52.038;5.566;2023-04-03T06:27:38;5.63;;;1.67;;
68763;SDS011;55754;52.038;5.566;2023-04-03T06:30:10;6.87;;;2.03;;
68763;SDS011;55754;52.038;5.566;2023-04-03T06:32:39;5.57;;;1.65;;
68763;SDS011;55754;52.038;5.566;2023-04-03T06:35:05;6.63;;;1.70;;
68763;SDS011;55754;52.038;5.566;2023-04-03T06:37:32;9.77;;;2.03;;
68763;SDS011;55754;52.038;5.566;2023-04-03T06:39:57;6.88;;;2.22;;
68763;SDS011;55754;52.038;5.566;2023-04-03T06:42:25;5.72;;;1.60;;
68763;SDS011;55754;52.038;5.566;2023-04-03T06:44:50;7.87;;;1.80;;
68763;SDS011;55754;52.038;5.566;2023-04-03T06:47:16;8.05;;;2.08;;
68763;SDS011;55754;52.038;5.566;2023-04-03T06:49:42;9.20;;;1.70;;
68763;SDS011;55754;52.038;5.566;2023-04-03T06:52:09;7.13;;;1.77;;
68763;SDS011;55754;52.038;5.566;2023-04-03T06:54:36;7.38;;;1.65;;
68763;SDS011;55754;52.038;5.566;2023-04-03T06:57:05;8.45;;;1.80;;
68763;SDS011;55754;52.038;5.566;2023-04-03T06:59:31;6.57;;;2.00;;
68763;SDS011;55754;52.038;5.566;2023-04-03T07:01:57;5.33;;;1.67;;
68763;SDS011;55754;52.038;5.566;2023-04-03T07:04:24;5.80;;;1.50;;
68763;SDS011;55754;52.038;5.566;2023-04-03T07:06:50;9.73;;;1.93;;
68763;SDS011;55754;52.038;5.566;2023-04-03T07:09:15;5.55;;;1.60;;
68763;SDS011;55754;52.038;5.566;2023-04-03T07:11:41;6.60;;;1.80;;
68763;SDS011;55754;52.038;5.566;2023-04-03T07:14:09;7.43;;;1.90;;
68763;SDS011;55754;52.038;5.566;2023-04-03T07:16:35;7.25;;;1.60;;
68763;SDS011;55754;52.038;5.566;2023-04-03T07:19:01;6.60;;;1.70;;
68763;SDS011;55754;52.038;5.566;2023-04-03T07:21:30;7.35;;;1.73;;
68763;SDS011;55754;52.038;5.566;2023-04-03T07:23:56;6.30;;;1.90;;
68763;SDS011;55754;52.038;5.566;2023-04-03T07:26:23;5.77;;;1.63;;
68763;SDS011;55754;52.038;5.566;2023-04-03T07:28:48;8.45;;;1.83;;
68763;SDS011;55754;52.038;5.566;2023-04-03T07:31:15;5.67;;;1.47;;
68763;SDS011;55754;52.038;5.566;2023-04-03T07:33:42;6.00;;;1.58;;
68763;SDS011;55754;52.038;5.566;2023-04-03T07:36:13;6.22;;;1.50;;
68763;SDS011;55754;52.038;5.566;2023-04-03T07:38:41;6.68;;;1.50;;
68763;SDS011;55754;52.038;5.566;2023-04-03T07:41:07;5.03;;;1.43;;
68763;SDS011;55754;52.038;5.566;2023-04-03T07:43:38;5.28;;;1.48;;
68763;SDS011;55754;52.038;5.566;2023-04-03T07:46:04;5.87;;;1.67;;
68763;SDS011;55754;52.038;5.566;2023-04-03T07:48:30;6.07;;;1.60;;
68763;SDS011;55754;52.038;5.566;2023-04-03T07:50:58;4.93;;;1.70;;
68763;SDS011;55754;52.038;5.566;2023-04-03T07:53:25;6.45;;;1.70;;
68763;SDS011;55754;52.038;5.566;2023-04-03T07:55:50;5.90;;;1.65;;
68763;SDS011;55754;52.038;5.566;2023-04-03T07:58:20;4.73;;;1.57;;
68763;SDS011;55754;52.038;5.566;2023-04-03T08:00:46;7.22;;;1.60;;
68763;SDS011;55754;52.038;5.566;2023-04-03T08:03:12;6.45;;;1.50;;
68763;SDS011;55754;52.038;5.566;2023-04-03T08:05:40;7.97;;;1.85;;
68763;SDS011;55754;52.038;5.566;2023-04-03T08:08:06;6.90;;;1.60;;
68763;SDS011;55754;52.038;5.566;2023-04-03T08:10:32;7.75;;;1.63;;
68763;SDS011;55754;52.038;5.566;2023-04-03T08:12:59;4.63;;;1.40;;
68763;SDS011;55754;52.038;5.566;2023-04-03T08:15:25;5.60;;;1.60;;
68763;SDS011;55754;52.038;5.566;2023-04-03T08:17:51;6.70;;;1.60;;
68763;SDS011;55754;52.038;5.566;2023-04-03T08:20:17;5.80;;;1.23;;
68763;SDS011;55754;52.038;5.566;2023-04-03T08:22:43;6.45;;;1.50;;
68763;SDS011;55754;52.038;5.566;2023-04-03T08:25:08;5.77;;;1.40;;
68763;SDS011;55754;52.038;5.566;2023-04-03T08:27:34;6.53;;;1.40;;
68763;SDS011;55754;52.038;5.566;2023-04-03T08:30:00;5.83;;;1.63;;
68763;SDS011;55754;52.038;5.566;2023-04-03T08:32:26;3.85;;;1.10;;
68763;SDS011;55754;52.038;5.566;2023-04-03T08:34:52;5.27;;;1.17;;
68763;SDS011;55754;52.038;5.566;2023-04-03T08:37:17;4.35;;;1.05;;
68763;SDS011;55754;52.038;5.566;2023-04-03T08:39:44;3.55;;;1.17;;
68763;SDS011;55754;52.038;5.566;2023-04-03T08:42:52;4.30;;;1.43;;
68763;SDS011;55754;52.038;5.566;2023-04-03T08:47:49;4.50;;;1.10;;
68763;SDS011;55754;52.038;5.566;2023-04-03T08:50:57;4.72;;;1.15;;
68763;SDS011;55754;52.038;5.566;2023-04-03T08:53:20;5.20;;;1.30;;
68763;SDS011;55754;52.038;5.566;2023-04-03T08:55:49;4.72;;;1.20;;
68763;SDS011;55754;52.038;5.566;2023-04-03T08:58:16;4.18;;;0.93;;
68763;SDS011;55754;52.038;5.566;2023-04-03T09:00:46;4.10;;;1.08;;
68763;SDS011;55754;52.038;5.566;2023-04-03T09:03:16;3.22;;;0.98;;
68763;SDS011;55754;52.038;5.566;2023-04-03T09:08:29;3.42;;;1.10;;
68763;SDS011;55754;52.038;5.566;2023-04-03T09:13:52;4.73;;;0.90;;
68763;SDS011;55754;52.038;5.566;2023-04-03T09:16:49;4.95;;;0.65;;
68763;SDS011;55754;52.038;5.566;2023-04-03T09:21:58;1.90;;;0.60;;
68763;SDS011;55754;52.038;5.566;2023-04-03T09:24:43;4.57;;;0.90;;
68763;SDS011;55754;52.038;5.566;2023-04-03T09:27:11;2.50;;;0.67;;
68763;SDS011;55754;52.038;5.566;2023-04-03T09:29:41;1.90;;;0.70;;
68763;SDS011;55754;52.038;5.566;2023-04-03T09:34:47;2.40;;;0.80;;
68763;SDS011;55754;52.038;5.566;2023-04-03T09:37:32;2.13;;;0.60;;
68763;SDS011;55754;52.038;5.566;2023-04-03T09:40:02;3.65;;;0.70;;
68763;SDS011;55754;52.038;5.566;2023-04-03T09:42:29;2.78;;;0.75;;
68763;SDS011;55754;52.038;5.566;2023-04-03T09:45:03;4.53;;;0.77;;
68763;SDS011;55754;52.038;5.566;2023-04-03T09:47:32;4.53;;;0.97;;
68763;SDS011;55754;52.038;5.566;2023-04-03T09:52:38;1.95;;;0.60;;
68763;SDS011;55754;52.038;5.566;2023-04-03T09:55:06;2.53;;;0.70;;
68763;SDS011;55754;52.038;5.566;2023-04-03T09:57:38;4.03;;;0.70;;
68763;SDS011;55754;52.038;5.566;2023-04-03T10:00:04;2.73;;;0.60;;
68763;SDS011;55754;52.038;5.566;2023-04-03T10:05:01;2.50;;;0.63;;
68763;SDS011;55754;52.038;5.566;2023-04-03T10:07:33;2.40;;;0.73;;
68763;SDS011;55754;52.038;5.566;2023-04-03T10:10:02;5.57;;;0.95;;
68763;SDS011;55754;52.038;5.566;2023-04-03T10:12:42;2.47;;;0.70;;
68763;SDS011;55754;52.038;5.566;2023-04-03T10:15:11;2.50;;;0.80;;
68763;SDS011;55754;52.038;5.566;2023-04-03T10:17:57;2.22;;;0.60;;
68763;SDS011;55754;52.038;5.566;2023-04-03T10:20:27;3.25;;;1.05;;
68763;SDS011;55754;52.038;5.566;2023-04-03T10:26:17;3.33;;;0.80;;
68763;SDS011;55754;52.038;5.566;2023-04-03T10:29:01;2.88;;;0.88;;
68763;SDS011;55754;52.038;5.566;2023-04-03T10:31:37;2.30;;;0.88;;
68763;SDS011;55754;52.038;5.566;2023-04-03T10:34:15;2.30;;;0.70;;
68763;SDS011;55754;52.038;5.566;2023-04-03T10:39:30;2.45;;;0.80;;
68763;SDS011;55754;52.038;5.566;2023-04-03T10:42:35;2.92;;;1.10;;
68763;SDS011;55754;52.038;5.566;2023-04-03T10:56:13;2.67;;;0.70;;
68763;SDS011;55754;52.038;5.566;2023-04-03T10:58:44;2.45;;;0.90;;
68763;SDS011;55754;52.038;5.566;2023-04-03T11:01:20;4.10;;;1.05;;
68763;SDS011;55754;52.038;5.566;2023-04-03T11:03:59;3.42;;;0.80;;
68763;SDS011;55754;52.038;5.566;2023-04-03T11:06:33;3.38;;;0.90;;
68763;SDS011;55754;52.038;5.566;2023-04-03T11:09:07;2.50;;;0.90;;
68763;SDS011;55754;52.038;5.566;2023-04-03T11:12:01;3.00;;;0.80;;
68763;SDS011;55754;52.038;5.566;2023-04-03T11:14:43;2.80;;;0.88;;
68763;SDS011;55754;52.038;5.566;2023-04-03T11:17:15;3.10;;;1.00;;
68763;SDS011;55754;52.038;5.566;2023-04-03T11:22:30;2.97;;;1.10;;
68763;SDS011;55754;52.038;5.566;2023-04-03T11:27:43;4.25;;;0.90;;
68763;SDS011;55754;52.038;5.566;2023-04-03T11:30:19;3.95;;;1.00;;
68763;SDS011;55754;52.038;5.566;2023-04-03T11:33:01;3.33;;;0.98;;
68763;SDS011;55754;52.038;5.566;2023-04-03T11:35:53;5.07;;;1.20;;
68763;SDS011;55754;52.038;5.566;2023-04-03T11:38:23;2.65;;;0.90;;
68763;SDS011;55754;52.038;5.566;2023-04-03T11:40:54;4.78;;;1.20;;
68763;SDS011;55754;52.038;5.566;2023-04-03T11:45:56;4.60;;;1.30;;
68763;SDS011;55754;52.038;5.566;2023-04-03T11:50:57;4.30;;;1.08;;
68763;SDS011;55754;52.038;5.566;2023-04-03T11:53:57;2.70;;;0.85;;
68763;SDS011;55754;52.038;5.566;2023-04-03T11:59:38;3.42;;;1.10;;
68763;SDS011;55754;52.038;5.566;2023-04-03T12:01:43;3.77;;;1.20;;
68763;SDS011;55754;52.038;5.566;2023-04-03T12:04:10;4.40;;;1.10;;
68763;SDS011;55754;52.038;5.566;2023-04-03T12:09:21;2.60;;;0.95;;
68763;SDS011;55754;52.038;5.566;2023-04-03T12:14:50;3.00;;;0.80;;
68763;SDS011;55754;52.038;5.566;2023-04-03T12:17:20;5.60;;;1.10;;
68763;SDS011;55754;52.038;5.566;2023-04-03T12:19:52;2.47;;;0.85;;
68763;SDS011;55754;52.038;5.566;2023-04-03T12:22:19;3.10;;;0.90;;
68763;SDS011;55754;52.038;5.566;2023-04-03T12:24:47;3.17;;;0.95;;
68763;SDS011;55754;52.038;5.566;2023-04-03T12:27:25;5.13;;;1.58;;
68763;SDS011;55754;52.038;5.566;2023-04-03T12:30:01;3.17;;;1.15;;
68763;SDS011;55754;52.038;5.566;2023-04-03T12:32:37;3.92;;;1.30;;
68763;SDS011;55754;52.038;5.566;2023-04-03T12:35:20;4.93;;;1.10;;
68763;SDS011;55754;52.038;5.566;2023-04-03T12:40:50;4.72;;;1.08;;
68763;SDS011;55754;52.038;5.566;2023-04-03T12:46:14;6.60;;;1.08;;
68763;SDS011;55754;52.038;5.566;2023-04-03T12:48:47;3.33;;;0.80;;
68763;SDS011;55754;52.038;5.566;2023-04-03T12:51:27;5.75;;;1.05;;
68763;SDS011;55754;52.038;5.566;2023-04-03T12:54:20;4.80;;;0.90;;
68763;SDS011;55754;52.038;5.566;2023-04-03T12:56:46;3.83;;;1.00;;
68763;SDS011;55754;52.038;5.566;2023-04-03T12:59:20;3.47;;;1.03;;
68763;SDS011;55754;52.038;5.566;2023-04-03T13:01:57;3.08;;;1.30;;
68763;SDS011;55754;52.038;5.566;2023-04-03T13:04:24;2.38;;;0.85;;
68763;SDS011;55754;52.038;5.566;2023-04-03T13:06:51;4.88;;;1.00;;
68763;SDS011;55754;52.038;5.566;2023-04-03T13:09:22;4.23;;;0.93;;
68763;SDS011;55754;52.038;5.566;2023-04-03T13:11:56;3.00;;;0.85;;
68763;SDS011;55754;52.038;5.566;2023-04-03T13:14:23;4.85;;;1.08;;
68763;SDS011;55754;52.038;5.566;2023-04-03T13:16:54;3.70;;;1.25;;
68763;SDS011;55754;52.038;5.566;2023-04-03T13:19:22;4.10;;;1.13;;
68763;SDS011;55754;52.038;5.566;2023-04-03T13:21:48;2.40;;;0.73;;
68763;SDS011;55754;52.038;5.566;2023-04-03T13:24:23;4.55;;;1.20;;
68763;SDS011;55754;52.038;5.566;2023-04-03T13:26:50;3.85;;;0.98;;
68763;SDS011;55754;52.038;5.566;2023-04-03T13:29:22;4.07;;;1.08;;
68763;SDS011;55754;52.038;5.566;2023-04-03T13:31:54;2.60;;;1.10;;
68763;SDS011;55754;52.038;5.566;2023-04-03T13:34:22;2.88;;;0.88;;
68763;SDS011;55754;52.038;5.566;2023-04-03T13:39:26;5.85;;;1.20;;
68763;SDS011;55754;52.038;5.566;2023-04-03T13:42:00;6.32;;;1.10;;
68763;SDS011;55754;52.038;5.566;2023-04-03T13:44:39;8.17;;;1.00;;
68763;SDS011;55754;52.038;5.566;2023-04-03T13:52:42;4.68;;;0.90;;
68763;SDS011;55754;52.038;5.566;2023-04-03T13:55:35;4.85;;;1.00;;
68763;SDS011;55754;52.038;5.566;2023-04-03T13:58:21;5.30;;;1.30;;
68763;SDS011;55754;52.038;5.566;2023-04-03T14:01:08;5.00;;;1.10;;
68763;SDS011;55754;52.038;5.566;2023-04-03T14:03:46;5.70;;;1.20;;
68763;SDS011;55754;52.038;5.566;2023-04-03T14:06:17;3.78;;;1.15;;
68763;SDS011;55754;52.038;5.566;2023-04-03T14:08:43;4.60;;;1.10;;
68763;SDS011;55754;52.038;5.566;2023-04-03T14:11:14;3.17;;;1.00;;
68763;SDS011;55754;52.038;5.566;2023-04-03T14:13:41;5.15;;;1.20;;
68763;SDS011;55754;52.038;5.566;2023-04-03T14:16:11;5.07;;;1.20;;
68763;SDS011;55754;52.038;5.566;2023-04-03T14:18:39;4.17;;;1.30;;
68763;SDS011;55754;52.038;5.566;2023-04-03T14:21:05;3.55;;;1.17;;
68763;SDS011;55754;52.038;5.566;2023-04-03T14:23:31;4.13;;;1.20;;
68763;SDS011;55754;52.038;5.566;2023-04-03T14:25:57;5.93;;;1.30;;
68763;SDS011;55754;52.038;5.566;2023-04-03T14:28:25;3.10;;;1.10;;
68763;SDS011;55754;52.038;5.566;2023-04-03T14:30:51;3.07;;;1.20;;
68763;SDS011;55754;52.038;5.566;2023-04-03T14:33:18;3.42;;;1.05;;
68763;SDS011;55754;52.038;5.566;2023-04-03T14:35:46;4.82;;;1.13;;
68763;SDS011;55754;52.038;5.566;2023-04-03T14:38:20;4.32;;;0.98;;
68763;SDS011;55754;52.038;5.566;2023-04-03T14:40:48;5.45;;;1.30;;
68763;SDS011;55754;52.038;5.566;2023-04-03T14:43:14;3.73;;;1.17;;
68763;SDS011;55754;52.038;5.566;2023-04-03T14:45:40;5.18;;;1.27;;
68763;SDS011;55754;52.038;5.566;2023-04-03T14:48:06;3.95;;;1.00;;
68763;SDS011;55754;52.038;5.566;2023-04-03T14:50:41;7.93;;;1.27;;
68763;SDS011;55754;52.038;5.566;2023-04-03T14:53:06;5.63;;;1.27;;
68763;SDS011;55754;52.038;5.566;2023-04-03T14:55:32;3.30;;;1.30;;
68763;SDS011;55754;52.038;5.566;2023-04-03T14:58:01;5.60;;;1.13;;
68763;SDS011;55754;52.038;5.566;2023-04-03T15:00:27;5.72;;;1.52;;
68763;SDS011;55754;52.038;5.566;2023-04-03T15:02:52;4.33;;;1.30;;
68763;SDS011;55754;52.038;5.566;2023-04-03T15:05:18;4.10;;;1.20;;
68763;SDS011;55754;52.038;5.566;2023-04-03T15:07:46;4.80;;;1.75;;
68763;SDS011;55754;52.038;5.566;2023-04-03T15:10:21;5.20;;;1.43;;
68763;SDS011;55754;52.038;5.566;2023-04-03T15:12:49;4.40;;;1.50;;
68763;SDS011;55754;52.038;5.566;2023-04-03T15:15:16;5.80;;;1.30;;
68763;SDS011;55754;52.038;5.566;2023-04-03T15:17:44;6.15;;;1.50;;
68763;SDS011;55754;52.038;5.566;2023-04-03T15:20:20;4.90;;;1.40;;
68763;SDS011;55754;52.038;5.566;2023-04-03T15:22:47;4.77;;;1.30;;
68763;SDS011;55754;52.038;5.566;2023-04-03T15:25:13;4.55;;;1.40;;
68763;SDS011;55754;52.038;5.566;2023-04-03T15:27:43;4.38;;;1.20;;
68763;SDS011;55754;52.038;5.566;2023-04-03T15:30:11;5.32;;;1.60;;
68763;SDS011;55754;52.038;5.566;2023-04-03T15:32:39;4.83;;;1.30;;
68763;SDS011;55754;52.038;5.566;2023-04-03T15:35:05;6.25;;;1.58;;
68763;SDS011;55754;52.038;5.566;2023-04-03T15:37:31;4.28;;;1.40;;
68763;SDS011;55754;52.038;5.566;2023-04-03T15:39:57;4.37;;;1.40;;
68763;SDS011;55754;52.038;5.566;2023-04-03T15:42:22;5.30;;;1.70;;
68763;SDS011;55754;52.038;5.566;2023-04-03T15:44:48;6.10;;;1.52;;
68763;SDS011;55754;52.038;5.566;2023-04-03T15:47:13;4.43;;;1.30;;
68763;SDS011;55754;52.038;5.566;2023-04-03T15:49:39;4.28;;;1.30;;
68763;SDS011;55754;52.038;5.566;2023-04-03T15:52:05;5.03;;;1.40;;
68763;SDS011;55754;52.038;5.566;2023-04-03T15:54:36;6.55;;;1.60;;
68763;SDS011;55754;52.038;5.566;2023-04-03T15:57:02;5.57;;;1.52;;
68763;SDS011;55754;52.038;5.566;2023-04-03T15:59:28;4.57;;;1.30;;
68763;SDS011;55754;52.038;5.566;2023-04-03T16:01:55;5.05;;;1.45;;
68763;SDS011;55754;52.038;5.566;2023-04-03T16:04:21;5.63;;;1.50;;
68763;SDS011;55754;52.038;5.566;2023-04-03T16:06:47;5.72;;;1.60;;
68763;SDS011;55754;52.038;5.566;2023-04-03T16:09:13;4.47;;;1.50;;
68763;SDS011;55754;52.038;5.566;2023-04-03T16:11:39;4.90;;;1.20;;
68763;SDS011;55754;52.038;5.566;2023-04-03T16:14:06;5.78;;;1.38;;